Time;durP1;ratioP1;P1;durP2;ratioP2;P2;SDS_P1;SDS_P2;PMS_P1;PMS_P2;Temp;Humidity;BMP_temperature;BMP_pressure;BME280_temperature;BME280_humidity;BME280_pressure;Samples;Min_cycle;Max_cycle;Signal;HPM_P1;HPM_P2
2022/04/01 00:02:47;;;;;;;20.05;11.23;;;;;;;;;;6188635;28;20039;-71
2022/04/01 00:05:48;;;;;;;20.75;12.10;;;;;;;;;;6186886;28;20185;-68
2022/04/01 00:08:50;;;;;;;20.30;11.25;;;;;;;;;;6188312;28;20093;-69
2022/04/01 00:11:52;;;;;;;19.30;12.48;;;;;;;;;;6185835;28;20122;-69
2022/04/01 00:14:55;;;;;;;21.23;12.48;;;;;;;;;;6183386;28;20050;-69
2022/04/01 00:17:57;;;;;;;20.05;11.82;;;;;;;;;;6182063;28;20125;-69
2022/04/01 00:20:58;;;;;;;21.67;12.50;;;;;;;;;;6188696;28;20046;-75
2022/04/01 00:24:00;;;;;;;20.60;12.68;;;;;;;;;;6185553;28;20126;-74
2022/04/01 00:27:01;;;;;;;24.40;11.02;;;;;;;;;;6188765;28;20129;-74
2022/04/01 00:30:06;;;;;;;19.52;9.27;;;;;;;;;;6188724;28;20054;-74
2022/04/01 00:33:08;;;;;;;16.27;8.90;;;;;;;;;;6191438;28;20491;-70
2022/04/01 00:36:10;;;;;;;16.30;8.75;;;;;;;;;;6185916;28;20050;-70
2022/04/01 00:39:12;;;;;;;14.73;9.60;;;;;;;;;;6190101;28;20074;-71
2022/04/01 00:42:14;;;;;;;17.20;9.93;;;;;;;;;;6186897;28;20130;-71
2022/04/01 00:45:17;;;;;;;16.55;10.40;;;;;;;;;;6186466;28;20129;-74
2022/04/01 00:48:18;;;;;;;16.35;8.50;;;;;;;;;;6189430;28;20054;-74
2022/04/01 00:51:20;;;;;;;13.50;8.98;;;;;;;;;;6183881;28;20133;-74
2022/04/01 00:54:21;;;;;;;18.00;10.35;;;;;;;;;;6185857;28;20112;-72
2022/04/01 00:57:25;;;;;;;15.40;8.48;;;;;;;;;;6187293;28;20406;-72
2022/04/01 01:00:28;;;;;;;17.90;11.15;;;;;;;;;;6186166;28;20047;-75
2022/04/01 01:03:29;;;;;;;17.90;12.95;;;;;;;;;;6181845;28;20050;-74
2022/04/01 01:06:33;;;;;;;21.70;15.40;;;;;;;;;;6182599;28;20058;-72
2022/04/01 01:09:34;;;;;;;25.17;17.92;;;;;;;;;;6185892;28;20047;-74
2022/04/01 01:12:36;;;;;;;26.52;17.65;;;;;;;;;;6192460;28;20046;-70
2022/04/01 01:15:39;;;;;;;25.70;17.65;;;;;;;;;;6192566;28;20045;-74
2022/04/01 01:18:41;;;;;;;28.23;18.60;;;;;;;;;;6188982;28;20055;-74
2022/04/01 01:21:43;;;;;;;25.65;19.23;;;;;;;;;;6187087;28;20117;-72
2022/04/01 01:24:46;;;;;;;27.27;19.55;;;;;;;;;;6192294;28;20128;-73
2022/04/01 01:27:47;;;;;;;28.33;19.95;;;;;;;;;;6184450;28;20071;-72
2022/04/01 01:30:49;;;;;;;28.83;21.13;;;;;;;;;;6191912;28;20121;-75
2022/04/01 01:33:51;;;;;;;29.88;20.27;;;;;;;;;;6190491;28;20050;-72
2022/04/01 01:36:53;;;;;;;31.65;22.02;;;;;;;;;;6191947;28;20078;-72
2022/04/01 01:39:56;;;;;;;27.92;19.40;;;;;;;;;;6182583;28;20133;-71
2022/04/01 01:42:57;;;;;;;27.38;18.55;;;;;;;;;;6184187;28;20042;-70
2022/04/01 01:45:59;;;;;;;27.45;17.45;;;;;;;;;;6183129;28;20439;-70
2022/04/01 01:49:00;;;;;;;22.52;15.98;;;;;;;;;;6181477;28;20060;-69
2022/04/01 01:55:23;;;;;;;20.08;14.18;;;;;;;;;;6183807;28;20122;-70
2022/04/01 01:58:26;;;;;;;18.20;12.90;;;;;;;;;;6181915;28;20136;-70
2022/04/01 02:01:28;;;;;;;18.10;10.82;;;;;;;;;;6185349;28;20053;-69
2022/04/01 02:04:29;;;;;;;17.17;9.02;;;;;;;;;;6191596;28;20057;-70
2022/04/01 02:07:31;;;;;;;11.73;7.68;;;;;;;;;;6188843;28;20054;-70
2022/04/01 02:10:34;;;;;;;11.55;7.88;;;;;;;;;;6187551;28;20053;-70
2022/04/01 02:13:36;;;;;;;12.20;8.00;;;;;;;;;;6181296;28;20414;-70
2022/04/01 02:16:37;;;;;;;12.25;8.20;;;;;;;;;;6187543;28;20169;-70
2022/04/01 02:19:39;;;;;;;14.43;7.97;;;;;;;;;;6183576;28;20046;-70
2022/04/01 02:22:41;;;;;;;11.48;8.40;;;;;;;;;;6180969;28;20129;-69
2022/04/01 02:25:44;;;;;;;13.95;8.00;;;;;;;;;;6182773;28;20122;-70
2022/04/01 02:28:46;;;;;;;15.27;8.77;;;;;;;;;;6183336;28;20129;-69
2022/04/01 02:31:50;;;;;;;16.63;8.70;;;;;;;;;;6184523;28;20154;-70
2022/04/01 02:34:51;;;;;;;14.05;8.82;;;;;;;;;;6184923;28;20061;-70
2022/04/01 02:37:53;;;;;;;13.48;9.20;;;;;;;;;;6184382;28;20125;-69
2022/04/01 02:40:57;;;;;;;15.63;8.38;;;;;;;;;;6183402;28;20050;-70
2022/04/01 02:44:08;;;;;;;11.35;7.18;;;;;;;;;;6192191;28;20577;-69
2022/04/01 02:47:09;;;;;;;11.75;7.82;;;;;;;;;;6188069;28;20133;-69
2022/04/01 02:50:11;;;;;;;11.32;8.05;;;;;;;;;;6185700;28;20046;-70
2022/04/01 02:53:13;;;;;;;11.85;8.43;;;;;;;;;;6185126;28;20054;-69
2022/04/01 02:56:17;;;;;;;10.00;7.75;;;;;;;;;;6182840;28;20050;-69
2022/04/01 02:59:18;;;;;;;13.15;7.70;;;;;;;;;;6185602;28;20045;-69
2022/04/01 03:02:20;;;;;;;12.60;7.72;;;;;;;;;;6185636;28;20150;-69
2022/04/01 03:05:21;;;;;;;9.05;6.35;;;;;;;;;;6184080;28;20181;-70
2022/04/01 03:08:23;;;;;;;11.40;6.15;;;;;;;;;;6184195;28;20139;-70
2022/04/01 03:11:26;;;;;;;8.32;5.55;;;;;;;;;;6183144;28;20133;-70
2022/04/01 03:14:27;;;;;;;10.43;6.28;;;;;;;;;;6197928;28;20050;-70
2022/04/01 03:17:29;;;;;;;10.40;6.85;;;;;;;;;;6195545;28;20062;-69
2022/04/01 03:20:33;;;;;;;10.45;6.63;;;;;;;;;;6195838;28;20057;-70
2022/04/01 03:23:36;;;;;;;10.75;6.68;;;;;;;;;;6194492;28;20050;-70
2022/04/01 03:26:40;;;;;;;8.65;5.85;;;;;;;;;;6193784;28;20142;-70
2022/04/01 03:29:41;;;;;;;8.80;6.20;;;;;;;;;;6188851;28;20178;-66
2022/04/01 03:32:45;;;;;;;7.20;5.03;;;;;;;;;;6192903;28;20039;-70
2022/04/01 03:35:47;;;;;;;7.78;5.32;;;;;;;;;;6187491;28;20066;-69
2022/04/01 03:38:48;;;;;;;7.30;5.13;;;;;;;;;;6187939;28;20499;-68
2022/04/01 03:41:51;;;;;;;7.32;5.15;;;;;;;;;;6189234;28;20162;-68
2022/04/01 03:44:53;;;;;;;8.40;5.07;;;;;;;;;;6186667;28;20055;-69
2022/04/01 03:48:00;;;;;;;6.18;5.20;;;;;;;;;;6187039;28;20057;-69
2022/04/01 03:51:04;;;;;;;8.20;5.25;;;;;;;;;;6186576;28;20052;-69
2022/04/01 03:54:06;;;;;;;8.18;5.28;;;;;;;;;;6196572;28;20066;-70
2022/04/01 03:57:11;;;;;;;8.57;5.72;;;;;;;;;;6194939;28;20050;-70
2022/04/01 04:00:12;;;;;;;;;;;;;;;;;;6195462;28;20043;-69
2022/04/01 04:03:15;;;;;;;7.45;5.75;;;;;;;;;;6188199;28;19971;-70
2022/04/01 04:06:17;;;;;;;9.70;5.70;;;;;;;;;;6190222;28;20077;-70
2022/04/01 04:09:20;;;;;;;11.50;5.88;;;;;;;;;;6188470;28;20414;-69
2022/04/01 04:12:23;;;;;;;9.68;5.93;;;;;;;;;;6186090;28;20046;-69
2022/04/01 04:15:27;;;;;;;8.57;5.85;;;;;;;;;;6184583;28;20062;-69
2022/04/01 04:18:34;;;;;;;10.60;6.00;;;;;;;;;;6182178;28;20074;-69
2022/04/01 04:21:41;;;;;;;7.10;5.38;;;;;;;;;;6178540;28;20121;-69
2022/04/01 04:24:44;;;;;;;7.88;5.40;;;;;;;;;;6185687;28;20051;-69
2022/04/01 04:27:52;;;;;;;8.82;5.45;;;;;;;;;;6187715;28;20126;-70
2022/04/01 04:30:55;;;;;;;9.02;5.63;;;;;;;;;;6192002;28;20470;-70
2022/04/01 04:33:57;;;;;;;7.47;5.65;;;;;;;;;;6195224;28;20141;-70
2022/04/01 04:37:00;;;;;;;8.80;6.00;;;;;;;;;;6189978;28;20379;-69
2022/04/01 04:40:02;;;;;;;9.55;6.25;;;;;;;;;;6193831;28;20047;-69
2022/04/01 04:43:06;;;;;;;8.63;6.45;;;;;;;;;;6191721;28;20474;-69
2022/04/01 04:46:08;;;;;;;9.95;6.78;;;;;;;;;;6189242;28;20137;-69
2022/04/01 04:49:10;;;;;;;10.07;7.18;;;;;;;;;;6189054;28;20146;-68
2022/04/01 04:52:12;;;;;;;13.27;7.80;;;;;;;;;;6185826;28;20178;-69
2022/04/01 04:55:15;;;;;;;12.60;8.57;;;;;;;;;;6185223;28;20124;-69
2022/04/01 04:58:19;;;;;;;14.20;9.47;;;;;;;;;;6187820;28;20050;-69
2022/04/01 05:01:34;;;;;;;15.75;9.13;;;;;;;;;;6192669;28;20054;-70
2022/04/01 05:04:52;;;;;;;12.02;8.43;;;;;;;;;;6188243;28;20046;-70
2022/04/01 05:08:07;;;;;;;12.65;8.95;;;;;;;;;;6185572;28;20100;-74
2022/04/01 05:11:12;;;;;;;13.82;9.13;;;;;;;;;;6187404;28;20098;-70
2022/04/01 05:14:27;;;;;;;14.63;10.02;;;;;;;;;;6193970;28;20105;-71
2022/04/01 05:17:35;;;;;;;15.05;10.50;;;;;;;;;;6191610;28;20051;-71
2022/04/01 05:20:38;;;;;;;16.10;10.75;;;;;;;;;;6187852;28;20051;-72
2022/04/01 05:23:45;;;;;;;20.13;12.63;;;;;;;;;;6188308;28;20053;-70
2022/04/01 05:26:52;;;;;;;22.42;14.38;;;;;;;;;;6184772;28;20451;-71
2022/04/01 05:30:04;;;;;;;22.10;15.13;;;;;;;;;;6186449;28;20085;-72
2022/04/01 05:33:10;;;;;;;20.80;16.17;;;;;;;;;;6186790;28;20050;-72
2022/04/01 05:36:12;;;;;;;26.45;16.83;;;;;;;;;;6189934;28;20126;-71
2022/04/01 05:39:14;;;;;;;25.35;14.27;;;;;;;;;;6184312;28;20065;-72
2022/04/01 05:42:18;;;;;;;20.17;12.85;;;;;;;;;;6186603;28;20161;-71
2022/04/01 05:45:21;;;;;;;22.10;13.27;;;;;;;;;;6187218;28;20050;-71
2022/04/01 05:48:23;;;;;;;22.52;15.25;;;;;;;;;;6184083;28;20053;-71
2022/04/01 05:51:27;;;;;;;21.55;16.50;;;;;;;;;;6184878;28;20042;-71
2022/04/01 05:54:29;;;;;;;27.83;17.95;;;;;;;;;;6189521;28;20054;-69
2022/04/01 05:57:31;;;;;;;31.25;19.45;;;;;;;;;;6187758;28;20140;-71
2022/04/01 06:00:39;;;;;;;30.40;19.42;;;;;;;;;;6185608;28;20058;-71
2022/04/01 06:04:17;;;;;;;30.52;19.60;;;;;;;;;;6185381;28;20057;-72
2022/04/01 06:07:28;;;;;;;30.85;21.45;;;;;;;;;;6184902;28;20066;-71
2022/04/01 06:10:36;;;;;;;29.30;20.65;;;;;;;;;;6189407;28;20122;-71
2022/04/01 06:13:45;;;;;;;29.27;19.38;;;;;;;;;;6188006;28;20197;-72
2022/04/01 06:16:51;;;;;;;25.98;17.50;;;;;;;;;;6184130;28;20047;-69
2022/04/01 06:19:57;;;;;;;25.20;15.90;;;;;;;;;;6183137;28;20073;-72
2022/04/01 06:23:01;;;;;;;20.67;13.88;;;;;;;;;;6182122;28;20129;-71
2022/04/01 06:26:03;;;;;;;22.63;14.32;;;;;;;;;;6179938;28;20129;-72
2022/04/01 06:29:13;;;;;;;23.63;14.95;;;;;;;;;;6176499;28;20490;-72
2022/04/01 06:32:22;;;;;;;22.45;15.05;;;;;;;;;;6183259;28;20524;-71
2022/04/01 06:35:28;;;;;;;21.85;15.35;;;;;;;;;;6183317;28;20058;-71
2022/04/01 06:38:36;;;;;;;23.40;15.10;;;;;;;;;;6181832;28;20055;-73
2022/04/01 06:41:43;;;;;;;30.00;16.50;;;;;;;;;;6179021;28;20137;-72
2022/04/01 06:44:44;;;;;;;23.55;16.33;;;;;;;;;;6188855;28;20053;-72
2022/04/01 06:47:47;;;;;;;20.33;13.20;;;;;;;;;;6183674;28;20070;-72
2022/04/01 06:50:50;;;;;;;18.17;12.95;;;;;;;;;;6185347;28;20128;-71
2022/04/01 06:53:52;;;;;;;19.02;12.88;;;;;;;;;;6178958;28;20077;-72
2022/04/01 06:56:53;;;;;;;16.45;9.35;;;;;;;;;;6182542;28;20086;-75
2022/04/01 06:59:55;;;;;;;14.40;10.43;;;;;;;;;;6183772;28;20054;-69
2022/04/01 07:02:58;;;;;;;15.45;10.18;;;;;;;;;;6179874;28;20200;-73
2022/04/01 07:05:59;;;;;;;13.60;8.35;;;;;;;;;;6181191;28;20051;-73
2022/04/01 07:09:01;;;;;;;10.88;6.40;;;;;;;;;;6179636;28;20139;-73
2022/04/01 07:12:03;;;;;;;8.75;5.78;;;;;;;;;;6188903;28;20066;-73
2022/04/01 07:15:07;;;;;;;6.93;5.20;;;;;;;;;;6183068;28;20137;-74
2022/04/01 07:18:10;;;;;;;8.23;5.50;;;;;;;;;;6188721;28;20141;-71
2022/04/01 07:21:12;;;;;;;8.70;6.07;;;;;;;;;;6192580;28;20100;-69
2022/04/01 07:24:13;;;;;;;8.50;5.78;;;;;;;;;;6190809;28;20125;-71
2022/04/01 07:27:15;;;;;;;10.07;5.65;;;;;;;;;;6188631;28;20133;-73
2022/04/01 07:30:16;;;;;;;12.77;6.53;;;;;;;;;;6184316;28;21001;-76
2022/04/01 07:33:19;;;;;;;18.58;12.07;;;;;;;;;;6185201;28;20130;-75
2022/04/01 07:36:21;;;;;;;62.80;37.23;;;;;;;;;;6184601;28;20050;-74
2022/04/01 07:39:22;;;;;;;19.10;12.27;;;;;;;;;;6181030;28;20130;-76
2022/04/01 07:42:25;;;;;;;15.45;9.63;;;;;;;;;;6181045;28;20050;-75
2022/04/01 07:45:27;;;;;;;11.68;7.80;;;;;;;;;;6182840;28;20047;-76
2022/04/01 07:48:30;;;;;;;12.43;8.90;;;;;;;;;;6181208;28;20133;-75
2022/04/01 07:51:32;;;;;;;10.87;8.30;;;;;;;;;;6188228;28;20047;-76
2022/04/01 07:54:35;;;;;;;9.50;6.95;;;;;;;;;;6198221;28;20050;-76
2022/04/01 07:57:37;;;;;;;6.85;4.55;;;;;;;;;;6194309;28;20391;-76
2022/04/01 08:00:38;;;;;;;5.20;3.20;;;;;;;;;;6197366;28;20053;-75
2022/04/01 08:03:44;;;;;;;5.25;3.00;;;;;;;;;;6196807;28;20414;-76
2022/04/01 08:06:45;;;;;;;3.80;2.40;;;;;;;;;;6194887;28;20177;-75
2022/04/01 08:09:47;;;;;;;3.88;2.60;;;;;;;;;;6187941;28;20109;-75
2022/04/01 08:12:49;;;;;;;3.47;2.35;;;;;;;;;;6190529;28;20591;-71
2022/04/01 08:15:50;;;;;;;7.47;2.60;;;;;;;;;;6187394;28;20129;-76
2022/04/01 08:18:53;;;;;;;3.30;2.50;;;;;;;;;;6184209;28;20177;-74
2022/04/01 08:21:57;;;;;;;4.93;2.42;;;;;;;;;;6181401;28;20410;-75
2022/04/01 08:24:59;;;;;;;4.97;2.38;;;;;;;;;;6181681;28;20119;-74
2022/04/01 08:28:00;;;;;;;4.20;2.13;;;;;;;;;;6184015;28;20097;-75
2022/04/01 08:31:02;;;;;;;2.13;1.67;;;;;;;;;;6191035;28;20129;-72
2022/04/01 08:34:05;;;;;;;5.38;2.10;;;;;;;;;;6195906;28;20042;-75
2022/04/01 08:37:08;;;;;;;2.47;2.00;;;;;;;;;;6190996;28;20143;-75
2022/04/01 08:40:10;;;;;;;5.47;2.33;;;;;;;;;;6191903;28;20499;-75
2022/04/01 08:43:12;;;;;;;3.78;2.20;;;;;;;;;;6189234;28;20169;-75
2022/04/01 08:46:14;;;;;;;4.07;2.47;;;;;;;;;;6190037;28;20177;-75
2022/04/01 08:49:17;;;;;;;6.35;3.08;;;;;;;;;;6182845;28;20082;-74
2022/04/01 08:52:18;;;;;;;5.32;2.80;;;;;;;;;;6187797;28;20484;-74
2022/04/01 08:55:20;;;;;;;6.32;3.00;;;;;;;;;;6185803;28;20100;-75
2022/04/01 08:58:23;;;;;;;5.53;2.60;;;;;;;;;;6185959;28;20462;-75
2022/04/01 09:01:24;;;;;;;6.10;3.10;;;;;;;;;;6187182;28;20043;-75
2022/04/01 09:04:27;;;;;;;4.15;2.53;;;;;;;;;;6192431;28;20046;-75
2022/04/01 09:07:29;;;;;;;4.50;2.78;;;;;;;;;;6189263;28;20089;-72
2022/04/01 09:10:31;;;;;;;3.38;2.83;;;;;;;;;;6195331;28;20128;-75
2022/04/01 09:13:34;;;;;;;3.15;2.30;;;;;;;;;;6194301;28;20152;-75
2022/04/01 09:16:39;;;;;;;;;;;;;;;;;;6190785;28;20096;-75
2022/04/01 09:19:41;;;;;;;3.28;2.40;;;;;;;;;;6191193;28;20016;-74
2022/04/01 09:22:44;;;;;;;3.85;2.40;;;;;;;;;;6191003;28;20055;-74
2022/04/01 09:25:50;;;;;;;3.88;2.38;;;;;;;;;;6187397;28;20129;-76
2022/04/01 09:28:53;;;;;;;4.57;2.30;;;;;;;;;;6186372;28;20415;-74
2022/04/01 09:31:55;;;;;;;4.38;2.10;;;;;;;;;;6184064;28;20487;-75
2022/04/01 09:35:00;;;;;;;2.28;1.90;;;;;;;;;;6183509;28;20055;-74
2022/04/01 09:38:04;;;;;;;3.08;1.73;;;;;;;;;;6186347;28;20784;-74
2022/04/01 09:41:07;;;;;;;1.48;1.38;;;;;;;;;;6191125;28;20058;-76
2022/04/01 09:44:10;;;;;;;1.83;1.55;;;;;;;;;;6189042;28;20051;-74
2022/04/01 09:47:13;;;;;;;2.28;1.58;;;;;;;;;;6185582;28;20181;-75
2022/04/01 09:50:18;;;;;;;1.80;1.50;;;;;;;;;;6186126;28;20054;-73
2022/04/01 09:53:20;;;;;;;3.00;1.70;;;;;;;;;;6191445;28;20458;-75
2022/04/01 09:56:35;;;;;;;2.30;1.70;;;;;;;;;;6191526;28;20050;-76
2022/04/01 09:59:37;;;;;;;2.75;1.65;;;;;;;;;;6186648;28;20051;-76
2022/04/01 10:02:39;;;;;;;2.38;1.75;;;;;;;;;;6189163;28;20130;-76
2022/04/01 10:05:43;;;;;;;2.47;1.80;;;;;;;;;;6189639;28;20406;-75
2022/04/01 10:08:45;;;;;;;;;;;;;;;;;;6189599;28;20565;-76
2022/04/01 10:11:47;;;;;;;2.80;1.60;;;;;;;;;;6184824;28;19944;-75
2022/04/01 10:14:48;;;;;;;3.47;2.10;;;;;;;;;;6187084;28;20046;-76
2022/04/01 10:17:51;;;;;;;3.63;2.47;;;;;;;;;;6183371;28;20050;-73
2022/04/01 10:20:55;;;;;;;4.95;2.20;;;;;;;;;;6183734;28;20061;-75
2022/04/01 10:24:00;;;;;;;2.45;1.92;;;;;;;;;;6183112;28;20402;-76
2022/04/01 10:27:08;;;;;;;2.70;2.20;;;;;;;;;;6183388;28;20050;-76
2022/04/01 10:30:13;;;;;;;3.10;2.25;;;;;;;;;;6177897;28;20061;-75
2022/04/01 10:33:21;;;;;;;4.00;3.05;;;;;;;;;;6185928;28;20062;-72
2022/04/01 10:36:33;;;;;;;4.53;2.42;;;;;;;;;;6206976;28;20133;-76
2022/04/01 10:39:47;;;;;;;3.58;2.58;;;;;;;;;;6203865;28;20632;-76
2022/04/01 10:42:49;;;;;;;3.75;2.45;;;;;;;;;;6208514;28;20136;-75
2022/04/01 10:45:59;;;;;;;3.97;2.90;;;;;;;;;;6206400;28;20049;-76
2022/04/01 10:52:27;;;;;;;3.50;2.55;;;;;;;;;;6189078;28;20046;-76
2022/04/01 10:55:29;;;;;;;2.78;2.45;;;;;;;;;;6186209;28;20502;-72
2022/04/01 10:58:36;;;;;;;3.38;2.67;;;;;;;;;;6184379;28;20070;-73
2022/04/01 11:01:40;;;;;;;3.33;2.60;;;;;;;;;;6184537;28;20180;-75
2022/04/01 11:04:43;;;;;;;5.15;2.63;;;;;;;;;;6183366;28;20051;-76
2022/04/01 11:07:46;;;;;;;5.25;2.80;;;;;;;;;;6179637;28;20174;-76
2022/04/01 11:11:06;;;;;;;3.85;2.63;;;;;;;;;;6183286;28;20189;-75
2022/04/01 11:14:08;;;;;;;3.63;2.83;;;;;;;;;;6185180;28;20051;-75
2022/04/01 11:17:10;;;;;;;4.28;2.50;;;;;;;;;;6183402;28;20058;-75
2022/04/01 11:20:13;;;;;;;2.97;2.67;;;;;;;;;;6179760;28;20069;-76
2022/04/01 11:23:16;;;;;;;3.60;2.95;;;;;;;;;;6187581;28;20047;-72
2022/04/01 11:26:18;;;;;;;5.50;2.88;;;;;;;;;;6189142;28;20509;-76
2022/04/01 11:29:21;;;;;;;3.92;2.95;;;;;;;;;;6190194;28;20517;-75
2022/04/01 11:32:23;;;;;;;4.05;2.60;;;;;;;;;;6191139;28;20141;-76
2022/04/01 11:35:26;;;;;;;3.30;2.50;;;;;;;;;;6188320;28;20216;-75
2022/04/01 11:38:30;;;;;;;4.57;2.85;;;;;;;;;;6212903;28;20110;-76
2022/04/01 11:41:45;;;;;;;4.03;3.05;;;;;;;;;;6209091;28;20497;-74
2022/04/01 11:44:55;;;;;;;18.17;11.48;;;;;;;;;;6210019;28;20062;-75
2022/04/01 11:47:56;;;;;;;5.93;4.38;;;;;;;;;;6208346;28;20069;-77
2022/04/01 11:50:59;;;;;;;8.00;4.05;;;;;;;;;;6211732;28;20137;-75
2022/04/01 11:54:02;;;;;;;3.88;3.17;;;;;;;;;;6215208;28;20128;-73
2022/04/01 11:57:04;;;;;;;4.95;3.53;;;;;;;;;;6211636;28;20050;-74
2022/04/01 12:00:10;;;;;;;3.53;3.22;;;;;;;;;;6219825;28;20060;-74
2022/04/01 12:03:12;;;;;;;4.93;3.40;;;;;;;;;;6218751;28;20053;-74
2022/04/01 12:09:34;;;;;;;3.72;3.35;;;;;;;;;;6211157;28;20046;-74
2022/04/01 12:12:36;;;;;;;3.35;3.05;;;;;;;;;;6211206;28;20112;-73
2022/04/01 12:15:39;;;;;;;4.32;3.75;;;;;;;;;;6204270;28;20057;-72
2022/04/01 12:18:45;;;;;;;3.60;3.30;;;;;;;;;;6205072;28;20478;-74
2022/04/01 12:21:48;;;;;;;4.22;3.47;;;;;;;;;;6202853;28;20366;-74
2022/04/01 12:24:51;;;;;;;4.07;3.67;;;;;;;;;;6206582;28;20094;-72
2022/04/01 12:27:54;;;;;;;5.45;3.55;;;;;;;;;;6203396;28;20953;-74
2022/04/01 12:30:57;;;;;;;3.60;3.30;;;;;;;;;;6213090;28;20081;-73
2022/04/01 12:33:59;;;;;;;4.37;3.63;;;;;;;;;;6220168;28;20060;-74
2022/04/01 12:37:02;;;;;;;4.60;4.05;;;;;;;;;;6220106;28;20060;-72
2022/04/01 12:40:10;;;;;;;5.13;4.15;;;;;;;;;;6215257;28;20121;-73
2022/04/01 12:43:34;;;;;;;4.68;3.88;;;;;;;;;;6216088;28;20124;-72
2022/04/01 12:46:35;;;;;;;11.10;5.22;;;;;;;;;;6211171;28;20185;-72
2022/04/01 12:49:42;;;;;;;7.03;5.35;;;;;;;;;;6213210;28;20128;-73
2022/04/01 12:52:49;;;;;;;5.82;5.18;;;;;;;;;;6184251;28;20046;-72
2022/04/01 12:55:52;;;;;;;5.18;4.68;;;;;;;;;;6184179;28;20047;-72
2022/04/01 12:58:55;;;;;;;5.70;5.15;;;;;;;;;;6187019;28;20133;-71
2022/04/01 13:01:57;;;;;;;;;;;;;;;;;;6184375;28;20054;-73
2022/04/01 13:04:59;;;;;;;6.05;5.18;;;;;;;;;;6186080;28;20374;-68
2022/04/01 13:08:01;;;;;;;6.32;5.65;;;;;;;;;;6190600;28;20054;-74
2022/04/01 13:11:12;;;;;;;8.32;6.28;;;;;;;;;;6185836;28;20045;-73
2022/04/01 13:14:23;;;;;;;6.80;6.10;;;;;;;;;;6193226;28;20089;-72
2022/04/01 13:17:25;;;;;;;7.10;5.53;;;;;;;;;;6186054;28;20129;-73
2022/04/01 13:20:29;;;;;;;7.25;6.18;;;;;;;;;;6186188;28;20393;-71
2022/04/01 13:23:31;;;;;;;7.68;6.05;;;;;;;;;;6183093;28;20114;-72
2022/04/01 13:26:34;;;;;;;6.40;5.80;;;;;;;;;;6185467;28;20070;-73
2022/04/01 13:29:36;;;;;;;6.30;5.25;;;;;;;;;;6180714;28;20123;-72
2022/04/01 13:32:37;;;;;;;6.95;6.25;;;;;;;;;;6182473;28;20054;-72
2022/04/01 13:35:39;;;;;;;8.15;6.72;;;;;;;;;;6179921;28;20050;-74
2022/04/01 13:38:40;;;;;;;7.63;6.70;;;;;;;;;;6181363;28;20518;-72
2022/04/01 13:41:43;;;;;;;7.22;6.53;;;;;;;;;;6189732;28;20125;-73
2022/04/01 13:44:45;;;;;;;8.73;6.97;;;;;;;;;;6182005;28;20442;-73
2022/04/01 13:47:47;;;;;;;6.95;6.25;;;;;;;;;;6184724;28;20537;-72
2022/04/01 13:50:48;;;;;;;10.70;7.60;;;;;;;;;;6187273;28;20173;-74
2022/04/01 13:53:50;;;;;;;9.07;6.80;;;;;;;;;;6189231;28;20132;-73
2022/04/01 13:56:53;;;;;;;9.15;6.47;;;;;;;;;;6186403;28;20042;-75
2022/04/01 13:59:54;;;;;;;9.05;7.18;;;;;;;;;;6180343;28;20133;-73
2022/04/01 14:02:56;;;;;;;10.57;8.40;;;;;;;;;;6179634;28;20049;-69
2022/04/01 14:05:58;;;;;;;9.35;8.35;;;;;;;;;;6175608;28;20058;-74
2022/04/01 14:08:59;;;;;;;12.00;8.27;;;;;;;;;;6183316;28;20050;-75
2022/04/01 14:12:03;;;;;;;9.90;8.30;;;;;;;;;;6179858;28;20466;-74
2022/04/01 14:15:05;;;;;;;9.10;8.23;;;;;;;;;;6181253;28;20411;-75
2022/04/01 14:18:08;;;;;;;11.50;9.48;;;;;;;;;;6183652;28;20043;-75
2022/04/01 14:21:10;;;;;;;11.77;10.20;;;;;;;;;;6176990;28;20057;-75
2022/04/01 14:24:11;;;;;;;11.73;10.10;;;;;;;;;;6180111;28;26249;-73
2022/04/01 14:27:14;;;;;;;22.90;12.95;;;;;;;;;;6185509;28;20052;-75
2022/04/01 14:30:19;;;;;;;20.02;14.05;;;;;;;;;;6184772;28;20049;-71
2022/04/01 14:33:21;;;;;;;23.02;16.83;;;;;;;;;;6178836;28;20399;-70
2022/04/01 14:36:22;;;;;;;18.40;15.80;;;;;;;;;;6173819;28;20126;-72
2022/04/01 14:39:25;;;;;;;18.35;15.13;;;;;;;;;;6175036;28;20184;-73
2022/04/01 14:42:28;;;;;;;18.90;14.27;;;;;;;;;;6173848;28;20182;-72
2022/04/01 14:45:29;;;;;;;18.10;12.80;;;;;;;;;;6178908;28;20133;-73
2022/04/01 14:48:32;;;;;;;12.50;11.20;;;;;;;;;;6175050;28;20365;-73
2022/04/01 14:51:34;;;;;;;12.43;10.02;;;;;;;;;;6184830;28;20050;-72
2022/04/01 14:54:36;;;;;;;9.57;8.68;;;;;;;;;;6185468;28;20061;-73
2022/04/01 14:57:39;;;;;;;33.00;12.38;;;;;;;;;;6186611;28;20059;-73
2022/04/01 15:00:40;;;;;;;7.60;6.70;;;;;;;;;;6181405;28;20058;-70
2022/04/01 15:03:42;;;;;;;8.57;6.32;;;;;;;;;;6186458;28;21104;-73
2022/04/01 15:06:44;;;;;;;8.93;6.43;;;;;;;;;;6181703;28;20133;-70
2022/04/01 15:09:46;;;;;;;7.57;5.72;;;;;;;;;;6174036;28;20139;-72
2022/04/01 15:12:50;;;;;;;7.68;6.40;;;;;;;;;;6182813;28;20391;-71
2022/04/01 15:15:51;;;;;;;;;;;;;;;;;;6185351;28;20494;-69
2022/04/01 15:18:53;;;;;;;8.73;7.82;;;;;;;;;;6184578;28;19945;-76
2022/04/01 15:21:55;;;;;;;9.73;8.73;;;;;;;;;;6180798;28;20062;-72
2022/04/01 15:24:57;;;;;;;12.15;9.68;;;;;;;;;;6182040;28;20047;-72
2022/04/01 15:28:00;;;;;;;10.02;8.77;;;;;;;;;;6189177;28;20053;-75
2022/04/01 15:31:02;;;;;;;9.80;8.82;;;;;;;;;;6183330;28;20541;-71
2022/04/01 15:34:04;;;;;;;10.80;9.45;;;;;;;;;;6180799;28;20121;-74
2022/04/01 15:37:06;;;;;;;10.50;9.43;;;;;;;;;;6177834;28;20043;-75
2022/04/01 15:40:09;;;;;;;11.10;9.25;;;;;;;;;;6175978;28;20421;-72
2022/04/01 15:43:13;;;;;;;9.50;8.60;;;;;;;;;;6180040;28;20390;-72
2022/04/01 15:46:17;;;;;;;11.15;9.20;;;;;;;;;;6179520;28;20058;-72
2022/04/01 15:49:20;;;;;;;10.18;8.68;;;;;;;;;;6178590;28;20054;-72
2022/04/01 15:52:22;;;;;;;10.30;9.10;;;;;;;;;;6177484;28;20439;-72
2022/04/01 15:55:23;;;;;;;10.40;8.82;;;;;;;;;;6181280;28;20100;-73
2022/04/01 15:58:27;;;;;;;11.93;9.55;;;;;;;;;;6184301;28;20062;-73
2022/04/01 16:01:30;;;;;;;14.15;9.40;;;;;;;;;;6187391;28;20177;-71
2022/04/01 16:04:36;;;;;;;11.02;9.48;;;;;;;;;;6186110;28;20129;-72
2022/04/01 16:07:40;;;;;;;10.75;9.40;;;;;;;;;;6186373;28;20062;-73
2022/04/01 16:10:42;;;;;;;13.73;9.65;;;;;;;;;;6182749;28;20059;-72
2022/04/01 16:13:45;;;;;;;13.55;10.57;;;;;;;;;;6184210;28;20058;-72
2022/04/01 16:16:47;;;;;;;12.93;9.45;;;;;;;;;;6180961;28;20043;-72
2022/04/01 16:19:49;;;;;;;16.98;3.70;;;;;;;;;;6182403;28;20122;-69
2022/04/01 16:22:52;;;;;;;5.90;3.33;;;;;;;;;;6181582;28;20042;-70
2022/04/01 16:25:53;;;;;;;4.70;2.33;;;;;;;;;;6188283;28;20413;-68
2022/04/01 16:28:56;;;;;;;8.43;2.50;;;;;;;;;;6183384;28;20498;-69
2022/04/01 16:31:58;;;;;;;5.90;3.10;;;;;;;;;;6186714;28;20122;-70
2022/04/01 16:35:00;;;;;;;3.05;2.00;;;;;;;;;;6189864;28;20035;-68
2022/04/01 16:38:03;;;;;;;2.80;1.85;;;;;;;;;;6186958;28;20097;-70
2022/04/01 16:41:08;;;;;;;3.55;1.90;;;;;;;;;;6189577;28;20050;-70
2022/04/01 16:44:12;;;;;;;6.03;2.50;;;;;;;;;;6189919;28;20058;-70
2022/04/01 16:47:14;;;;;;;7.57;2.25;;;;;;;;;;6207378;28;20065;-70
2022/04/01 16:50:17;;;;;;;4.43;2.35;;;;;;;;;;6209342;28;20181;-71
2022/04/01 16:53:20;;;;;;;5.93;2.78;;;;;;;;;;6214074;28;20053;-71
2022/04/01 16:56:26;;;;;;;4.07;2.60;;;;;;;;;;6211624;28;20050;-70
2022/04/01 16:59:32;;;;;;;5.20;2.55;;;;;;;;;;6214199;28;20051;-71
2022/04/01 17:02:34;;;;;;;8.68;3.22;;;;;;;;;;6207847;28;20125;-71
2022/04/01 17:12:31;;;;;;;4.40;2.28;;;;;;;;;;6209121;28;20050;-71
2022/04/01 17:12:34;;;;;;;3.50;2.10;;;;;;;;;;6189765;28;20049;-70
2022/04/01 17:15:39;;;;;;;9.55;2.70;;;;;;;;;;6217910;28;20556;-71
2022/04/01 17:18:40;;;;;;;5.18;2.92;;;;;;;;;;6214467;28;20049;-70
2022/04/01 17:21:42;;;;;;;5.03;2.28;;;;;;;;;;6211763;28;20188;-70
2022/04/01 17:24:45;;;;;;;4.32;2.22;;;;;;;;;;6207581;28;20467;-70
2022/04/01 17:27:48;;;;;;;3.85;1.98;;;;;;;;;;6212471;28;20046;-70
2022/04/01 17:30:52;;;;;;;5.15;1.75;;;;;;;;;;6210081;28;20049;-70
2022/04/01 17:33:53;;;;;;;;;;;;;;;;;;6207945;28;20046;-70
2022/04/01 17:36:56;;;;;;;3.38;1.55;;;;;;;;;;6207433;28;20601;-70
2022/04/01 17:39:58;;;;;;;2.95;1.90;;;;;;;;;;6210620;28;20042;-70
2022/04/01 17:43:01;;;;;;;4.90;1.98;;;;;;;;;;6210531;28;20168;-70
2022/04/01 17:46:05;;;;;;;3.25;1.92;;;;;;;;;;6211792;28;20057;-70
2022/04/01 17:49:07;;;;;;;4.28;1.70;;;;;;;;;;6211427;28;20529;-70
2022/04/01 17:52:10;;;;;;;5.05;2.08;;;;;;;;;;6212489;28;20042;-74
2022/04/01 17:55:12;;;;;;;6.77;2.17;;;;;;;;;;6213748;28;20041;-70
2022/04/01 17:58:16;;;;;;;7.82;2.60;;;;;;;;;;6212995;28;20466;-68
2022/04/01 18:01:23;;;;;;;3.60;2.00;;;;;;;;;;6209159;28;20056;-70
2022/04/01 18:04:27;;;;;;;3.33;1.70;;;;;;;;;;6208009;28;20061;-71
2022/04/01 18:07:31;;;;;;;3.93;1.93;;;;;;;;;;6203507;28;20051;-69
2022/04/01 18:10:33;;;;;;;4.72;1.77;;;;;;;;;;6208043;28;20120;-68
2022/04/01 18:13:35;;;;;;;2.30;1.88;;;;;;;;;;6206258;28;20136;-69
2022/04/01 18:16:39;;;;;;;3.65;1.98;;;;;;;;;;6211469;28;20054;-69
2022/04/01 18:19:43;;;;;;;8.07;2.45;;;;;;;;;;6215896;28;20057;-69
2022/04/01 18:22:46;;;;;;;5.05;2.22;;;;;;;;;;6214500;28;20053;-70
2022/04/01 18:25:52;;;;;;;3.35;2.08;;;;;;;;;;6209703;28;20050;-70